sensor_id;sensor_type;location;lat;lon;timestamp;temperature;humidity
33269;DHT22;19640;50.944;5.260;2022-10-16T00:01:16;14.60;99.90
33269;DHT22;19640;50.944;5.260;2022-10-16T00:03:43;14.60;99.90
33269;DHT22;19640;50.944;5.260;2022-10-16T00:06:10;14.70;99.90
33269;DHT22;19640;50.944;5.260;2022-10-16T00:08:37;14.70;99.90
33269;DHT22;19640;50.944;5.260;2022-10-16T00:13:32;14.70;99.90
33269;DHT22;19640;50.944;5.260;2022-10-16T00:15:59;14.80;99.90
33269;DHT22;19640;50.944;5.260;2022-10-16T00:18:26;14.80;99.90
33269;DHT22;19640;50.944;5.260;2022-10-16T00:20:52;14.80;99.90
33269;DHT22;19640;50.944;5.260;2022-10-16T00:23:18;14.70;99.90
33269;DHT22;19640;50.944;5.260;2022-10-16T00:25:44;14.70;99.90
33269;DHT22;19640;50.944;5.260;2022-10-16T00:28:09;14.60;99.90
33269;DHT22;19640;50.944;5.260;2022-10-16T00:30:38;14.60;99.90
33269;DHT22;19640;50.944;5.260;2022-10-16T00:33:04;14.70;99.90
33269;DHT22;19640;50.944;5.260;2022-10-16T00:35:31;14.80;99.90
33269;DHT22;19640;50.944;5.260;2022-10-16T00:37:56;14.70;99.90
33269;DHT22;19640;50.944;5.260;2022-10-16T00:40:22;14.60;99.90
33269;DHT22;19640;50.944;5.260;2022-10-16T00:42:47;14.50;99.90
33269;DHT22;19640;50.944;5.260;2022-10-16T00:45:13;14.50;99.90
33269;DHT22;19640;50.944;5.260;2022-10-16T00:47:42;14.50;99.90
33269;DHT22;19640;50.944;5.260;2022-10-16T00:50:22;14.50;99.90
33269;DHT22;19640;50.944;5.260;2022-10-16T00:52:50;14.40;99.90
33269;DHT22;19640;50.944;5.260;2022-10-16T00:55:17;14.30;99.90
33269;DHT22;19640;50.944;5.260;2022-10-16T00:57:43;14.40;99.90
33269;DHT22;19640;50.944;5.260;2022-10-16T01:00:12;14.40;99.90
33269;DHT22;19640;50.944;5.260;2022-10-16T01:02:38;14.50;99.90
33269;DHT22;19640;50.944;5.260;2022-10-16T01:05:04;14.40;99.90
33269;DHT22;19640;50.944;5.260;2022-10-16T01:12:41;14.40;99.90
33269;DHT22;19640;50.944;5.260;2022-10-16T01:15:10;14.30;99.90
33269;DHT22;19640;50.944;5.260;2022-10-16T01:17:45;14.30;99.90
33269;DHT22;19640;50.944;5.260;2022-10-16T01:20:28;14.30;99.90
33269;DHT22;19640;50.944;5.260;2022-10-16T01:28:54;14.20;99.90
33269;DHT22;19640;50.944;5.260;2022-10-16T01:31:24;14.10;99.90
33269;DHT22;19640;50.944;5.260;2022-10-16T01:33:58;14.20;99.90
33269;DHT22;19640;50.944;5.260;2022-10-16T01:36:30;14.10;99.90
33269;DHT22;19640;50.944;5.260;2022-10-16T01:39:01;14.10;99.90
33269;DHT22;19640;50.944;5.260;2022-10-16T01:41:36;14.00;99.90
33269;DHT22;19640;50.944;5.260;2022-10-16T01:44:13;14.00;99.90
33269;DHT22;19640;50.944;5.260;2022-10-16T01:46:43;14.00;99.90
33269;DHT22;19640;50.944;5.260;2022-10-16T01:49:12;14.00;99.90
33269;DHT22;19640;50.944;5.260;2022-10-16T01:51:38;14.10;99.90
33269;DHT22;19640;50.944;5.260;2022-10-16T01:54:07;14.10;99.90
33269;DHT22;19640;50.944;5.260;2022-10-16T01:56:34;14.10;99.90
33269;DHT22;19640;50.944;5.260;2022-10-16T01:59:12;14.10;99.90
33269;DHT22;19640;50.944;5.260;2022-10-16T02:01:42;14.20;99.90
33269;DHT22;19640;50.944;5.260;2022-10-16T02:04:24;14.00;99.90
33269;DHT22;19640;50.944;5.260;2022-10-16T02:06:52;14.00;99.90
33269;DHT22;19640;50.944;5.260;2022-10-16T02:09:18;14.10;99.90
33269;DHT22;19640;50.944;5.260;2022-10-16T02:11:44;14.20;99.90
33269;DHT22;19640;50.944;5.260;2022-10-16T02:14:10;14.30;99.90
33269;DHT22;19640;50.944;5.260;2022-10-16T02:16:42;14.30;99.90
33269;DHT22;19640;50.944;5.260;2022-10-16T02:19:08;14.20;99.90
33269;DHT22;19640;50.944;5.260;2022-10-16T02:21:51;14.10;99.90
33269;DHT22;19640;50.944;5.260;2022-10-16T02:27:26;14.10;99.90
33269;DHT22;19640;50.944;5.260;2022-10-16T02:30:11;14.20;99.90
33269;DHT22;19640;50.944;5.260;2022-10-16T02:32:39;14.10;99.90
33269;DHT22;19640;50.944;5.260;2022-10-16T02:35:08;14.00;99.90
33269;DHT22;19640;50.944;5.260;2022-10-16T02:37:34;14.10;99.90
33269;DHT22;19640;50.944;5.260;2022-10-16T02:40:01;14.20;99.90
33269;DHT22;19640;50.944;5.260;2022-10-16T02:42:39;14.20;99.90
33269;DHT22;19640;50.944;5.260;2022-10-16T02:45:06;14.20;99.90
33269;DHT22;19640;50.944;5.260;2022-10-16T02:47:32;14.20;99.90
33269;DHT22;19640;50.944;5.260;2022-10-16T02:49:58;14.00;99.90
33269;DHT22;19640;50.944;5.260;2022-10-16T02:52:23;14.10;99.90
33269;DHT22;19640;50.944;5.260;2022-10-16T02:54:49;14.10;99.90
33269;DHT22;19640;50.944;5.260;2022-10-16T02:57:14;14.10;99.90
33269;DHT22;19640;50.944;5.260;2022-10-16T02:59:40;14.10;99.90
33269;DHT22;19640;50.944;5.260;2022-10-16T03:02:06;14.20;99.90
33269;DHT22;19640;50.944;5.260;2022-10-16T03:04:32;14.20;99.90
33269;DHT22;19640;50.944;5.260;2022-10-16T03:06:57;14.30;99.90
33269;DHT22;19640;50.944;5.260;2022-10-16T03:09:23;14.30;99.90
33269;DHT22;19640;50.944;5.260;2022-10-16T03:11:48;14.10;99.90
33269;DHT22;19640;50.944;5.260;2022-10-16T03:14:14;14.20;99.90
33269;DHT22;19640;50.944;5.260;2022-10-16T03:16:39;14.10;99.90
33269;DHT22;19640;50.944;5.260;2022-10-16T03:19:05;14.00;99.90
33269;DHT22;19640;50.944;5.260;2022-10-16T03:21:31;14.00;99.90
33269;DHT22;19640;50.944;5.260;2022-10-16T03:23:56;14.20;99.90
33269;DHT22;19640;50.944;5.260;2022-10-16T03:26:22;14.10;99.90
33269;DHT22;19640;50.944;5.260;2022-10-16T03:28:48;14.10;99.90
33269;DHT22;19640;50.944;5.260;2022-10-16T03:31:13;14.00;99.90
33269;DHT22;19640;50.944;5.260;2022-10-16T03:33:39;14.10;99.90
33269;DHT22;19640;50.944;5.260;2022-10-16T03:36:04;14.00;99.90
33269;DHT22;19640;50.944;5.260;2022-10-16T03:38:30;14.10;99.90
33269;DHT22;19640;50.944;5.260;2022-10-16T03:40:56;14.10;99.90
33269;DHT22;19640;50.944;5.260;2022-10-16T03:43:21;14.10;99.90
33269;DHT22;19640;50.944;5.260;2022-10-16T03:45:47;14.10;99.90
33269;DHT22;19640;50.944;5.260;2022-10-16T03:48:12;14.10;99.90
33269;DHT22;19640;50.944;5.260;2022-10-16T03:50:38;14.10;99.90
33269;DHT22;19640;50.944;5.260;2022-10-16T03:53:04;14.00;99.90
33269;DHT22;19640;50.944;5.260;2022-10-16T03:55:29;14.00;99.90
33269;DHT22;19640;50.944;5.260;2022-10-16T03:57:55;14.00;99.90
33269;DHT22;19640;50.944;5.260;2022-10-16T04:00:20;14.00;99.90
33269;DHT22;19640;50.944;5.260;2022-10-16T04:02:46;14.00;99.90
33269;DHT22;19640;50.944;5.260;2022-10-16T04:05:12;14.10;99.90
33269;DHT22;19640;50.944;5.260;2022-10-16T04:07:37;14.00;99.90
33269;DHT22;19640;50.944;5.260;2022-10-16T04:10:04;14.10;99.90
33269;DHT22;19640;50.944;5.260;2022-10-16T04:12:30;14.10;99.90
33269;DHT22;19640;50.944;5.260;2022-10-16T04:14:55;14.00;99.90
33269;DHT22;19640;50.944;5.260;2022-10-16T04:17:21;14.00;99.90
33269;DHT22;19640;50.944;5.260;2022-10-16T04:19:46;14.00;99.90
33269;DHT22;19640;50.944;5.260;2022-10-16T04:22:13;14.00;99.90
33269;DHT22;19640;50.944;5.260;2022-10-16T04:24:38;13.90;99.90
33269;DHT22;19640;50.944;5.260;2022-10-16T04:27:04;14.00;99.90
33269;DHT22;19640;50.944;5.260;2022-10-16T04:29:30;14.00;99.90
33269;DHT22;19640;50.944;5.260;2022-10-16T04:31:55;14.10;99.90
33269;DHT22;19640;50.944;5.260;2022-10-16T04:34:21;14.00;99.90
33269;DHT22;19640;50.944;5.260;2022-10-16T04:36:48;14.10;99.90
33269;DHT22;19640;50.944;5.260;2022-10-16T04:39:15;14.10;99.90
33269;DHT22;19640;50.944;5.260;2022-10-16T04:41:40;14.20;99.90
33269;DHT22;19640;50.944;5.260;2022-10-16T04:44:06;14.20;99.90
33269;DHT22;19640;50.944;5.260;2022-10-16T04:46:32;14.10;99.90
33269;DHT22;19640;50.944;5.260;2022-10-16T04:48:57;14.00;99.90
33269;DHT22;19640;50.944;5.260;2022-10-16T04:51:23;13.90;99.90
33269;DHT22;19640;50.944;5.260;2022-10-16T04:53:49;14.00;99.90
33269;DHT22;19640;50.944;5.260;2022-10-16T04:56:14;14.00;99.90
33269;DHT22;19640;50.944;5.260;2022-10-16T04:58:40;14.00;99.90
33269;DHT22;19640;50.944;5.260;2022-10-16T05:01:06;14.10;99.90
33269;DHT22;19640;50.944;5.260;2022-10-16T05:03:32;14.10;99.90
33269;DHT22;19640;50.944;5.260;2022-10-16T05:05:57;14.20;99.90
33269;DHT22;19640;50.944;5.260;2022-10-16T05:08:23;14.10;99.90
33269;DHT22;19640;50.944;5.260;2022-10-16T05:10:49;14.10;99.90
33269;DHT22;19640;50.944;5.260;2022-10-16T05:13:14;14.10;99.90
33269;DHT22;19640;50.944;5.260;2022-10-16T05:15:40;14.10;99.90
33269;DHT22;19640;50.944;5.260;2022-10-16T05:18:05;13.90;99.90
33269;DHT22;19640;50.944;5.260;2022-10-16T05:20:31;13.90;99.90
33269;DHT22;19640;50.944;5.260;2022-10-16T05:22:57;13.90;99.90
33269;DHT22;19640;50.944;5.260;2022-10-16T05:25:23;14.00;99.90
33269;DHT22;19640;50.944;5.260;2022-10-16T05:27:49;13.90;99.90
33269;DHT22;19640;50.944;5.260;2022-10-16T05:30:15;14.00;99.90
33269;DHT22;19640;50.944;5.260;2022-10-16T05:32:46;14.00;99.90
33269;DHT22;19640;50.944;5.260;2022-10-16T05:35:11;14.00;99.90
33269;DHT22;19640;50.944;5.260;2022-10-16T05:37:37;13.90;99.90
33269;DHT22;19640;50.944;5.260;2022-10-16T05:40:03;13.80;99.90
33269;DHT22;19640;50.944;5.260;2022-10-16T05:42:30;13.80;99.90
33269;DHT22;19640;50.944;5.260;2022-10-16T05:44:56;13.80;99.90
33269;DHT22;19640;50.944;5.260;2022-10-16T05:47:21;13.70;99.90
33269;DHT22;19640;50.944;5.260;2022-10-16T05:49:47;13.70;99.90
33269;DHT22;19640;50.944;5.260;2022-10-16T05:52:13;13.70;99.90
33269;DHT22;19640;50.944;5.260;2022-10-16T05:54:38;13.60;99.90
33269;DHT22;19640;50.944;5.260;2022-10-16T05:57:04;13.50;99.90
33269;DHT22;19640;50.944;5.260;2022-10-16T05:59:31;13.60;99.90
33269;DHT22;19640;50.944;5.260;2022-10-16T06:01:57;13.70;99.90
33269;DHT22;19640;50.944;5.260;2022-10-16T06:04:22;13.60;99.90
33269;DHT22;19640;50.944;5.260;2022-10-16T06:06:48;13.80;99.90
33269;DHT22;19640;50.944;5.260;2022-10-16T06:09:14;13.90;99.90
33269;DHT22;19640;50.944;5.260;2022-10-16T06:11:40;13.90;99.90
33269;DHT22;19640;50.944;5.260;2022-10-16T06:14:05;13.90;99.90
33269;DHT22;19640;50.944;5.260;2022-10-16T06:16:37;13.90;99.90
33269;DHT22;19640;50.944;5.260;2022-10-16T06:19:03;13.70;99.90
33269;DHT22;19640;50.944;5.260;2022-10-16T06:21:31;13.70;99.90
33269;DHT22;19640;50.944;5.260;2022-10-16T06:23:57;13.70;99.90
33269;DHT22;19640;50.944;5.260;2022-10-16T06:26:28;13.70;99.90
33269;DHT22;19640;50.944;5.260;2022-10-16T06:28:55;13.70;99.90
33269;DHT22;19640;50.944;5.260;2022-10-16T06:31:22;13.70;99.90
33269;DHT22;19640;50.944;5.260;2022-10-16T06:33:51;13.70;99.90
33269;DHT22;19640;50.944;5.260;2022-10-16T06:36:17;13.70;99.90
33269;DHT22;19640;50.944;5.260;2022-10-16T06:38:44;13.70;99.90
33269;DHT22;19640;50.944;5.260;2022-10-16T06:41:12;13.60;99.90
33269;DHT22;19640;50.944;5.260;2022-10-16T06:43:38;13.70;99.90
33269;DHT22;19640;50.944;5.260;2022-10-16T06:46:06;13.70;99.90
33269;DHT22;19640;50.944;5.260;2022-10-16T06:48:35;13.70;99.90
33269;DHT22;19640;50.944;5.260;2022-10-16T06:51:03;13.90;99.90
33269;DHT22;19640;50.944;5.260;2022-10-16T06:53:32;13.70;99.90
33269;DHT22;19640;50.944;5.260;2022-10-16T06:56:10;13.70;99.90
33269;DHT22;19640;50.944;5.260;2022-10-16T06:58:36;13.60;99.90
33269;DHT22;19640;50.944;5.260;2022-10-16T07:01:02;13.70;99.90
33269;DHT22;19640;50.944;5.260;2022-10-16T07:03:27;13.80;99.90
33269;DHT22;19640;50.944;5.260;2022-10-16T07:05:53;13.70;99.90
33269;DHT22;19640;50.944;5.260;2022-10-16T07:08:18;13.70;99.90
33269;DHT22;19640;50.944;5.260;2022-10-16T07:10:44;13.80;99.90
33269;DHT22;19640;50.944;5.260;2022-10-16T07:13:10;13.90;99.90
33269;DHT22;19640;50.944;5.260;2022-10-16T07:15:38;14.00;99.90
33269;DHT22;19640;50.944;5.260;2022-10-16T07:18:04;14.10;99.90
33269;DHT22;19640;50.944;5.260;2022-10-16T07:20:29;14.10;99.90
33269;DHT22;19640;50.944;5.260;2022-10-16T07:22:55;14.20;99.90
33269;DHT22;19640;50.944;5.260;2022-10-16T07:25:20;14.20;99.90
33269;DHT22;19640;50.944;5.260;2022-10-16T07:27:46;14.20;99.90
33269;DHT22;19640;50.944;5.260;2022-10-16T07:30:12;14.20;99.90
33269;DHT22;19640;50.944;5.260;2022-10-16T07:32:37;14.30;99.90
33269;DHT22;19640;50.944;5.260;2022-10-16T07:35:03;14.40;99.90
33269;DHT22;19640;50.944;5.260;2022-10-16T07:37:29;14.50;99.90
33269;DHT22;19640;50.944;5.260;2022-10-16T07:39:55;14.60;99.90
33269;DHT22;19640;50.944;5.260;2022-10-16T07:42:20;14.60;99.90
33269;DHT22;19640;50.944;5.260;2022-10-16T07:44:46;14.70;99.90
33269;DHT22;19640;50.944;5.260;2022-10-16T07:47:12;14.70;99.90
33269;DHT22;19640;50.944;5.260;2022-10-16T07:49:37;14.70;99.90
33269;DHT22;19640;50.944;5.260;2022-10-16T07:52:03;15.00;99.90
33269;DHT22;19640;50.944;5.260;2022-10-16T07:54:29;15.10;99.90
33269;DHT22;19640;50.944;5.260;2022-10-16T07:56:54;15.30;99.90
33269;DHT22;19640;50.944;5.260;2022-10-16T07:59:20;15.40;99.90
33269;DHT22;19640;50.944;5.260;2022-10-16T08:01:46;15.60;99.90
33269;DHT22;19640;50.944;5.260;2022-10-16T08:04:11;15.80;99.90
33269;DHT22;19640;50.944;5.260;2022-10-16T08:06:38;15.90;99.90
33269;DHT22;19640;50.944;5.260;2022-10-16T08:09:05;16.10;99.90
33269;DHT22;19640;50.944;5.260;2022-10-16T08:11:32;16.00;99.90
33269;DHT22;19640;50.944;5.260;2022-10-16T08:13:58;15.80;99.90
33269;DHT22;19640;50.944;5.260;2022-10-16T08:16:23;15.80;99.90
33269;DHT22;19640;50.944;5.260;2022-10-16T08:18:49;15.80;99.90
33269;DHT22;19640;50.944;5.260;2022-10-16T08:21:18;15.90;99.90
33269;DHT22;19640;50.944;5.260;2022-10-16T08:23:44;16.00;99.90
33269;DHT22;19640;50.944;5.260;2022-10-16T08:26:10;16.10;99.90
33269;DHT22;19640;50.944;5.260;2022-10-16T08:28:36;16.40;99.90
33269;DHT22;19640;50.944;5.260;2022-10-16T08:31:14;16.30;99.90
33269;DHT22;19640;50.944;5.260;2022-10-16T08:33:42;16.50;99.90
33269;DHT22;19640;50.944;5.260;2022-10-16T08:36:10;16.60;99.90
33269;DHT22;19640;50.944;5.260;2022-10-16T08:38:36;16.80;99.90
33269;DHT22;19640;50.944;5.260;2022-10-16T08:41:32;16.70;99.90
33269;DHT22;19640;50.944;5.260;2022-10-16T08:44:30;16.70;99.90
33269;DHT22;19640;50.944;5.260;2022-10-16T08:47:05;16.80;99.90
33269;DHT22;19640;50.944;5.260;2022-10-16T08:49:34;16.70;99.90
33269;DHT22;19640;50.944;5.260;2022-10-16T08:51:59;16.70;99.90
33269;DHT22;19640;50.944;5.260;2022-10-16T08:54:36;16.70;99.90
33269;DHT22;19640;50.944;5.260;2022-10-16T08:57:16;16.60;99.90
33269;DHT22;19640;50.944;5.260;2022-10-16T08:59:42;16.70;99.90
33269;DHT22;19640;50.944;5.260;2022-10-16T09:02:38;16.90;99.90
33269;DHT22;19640;50.944;5.260;2022-10-16T09:08:09;17.10;99.90
33269;DHT22;19640;50.944;5.260;2022-10-16T09:10:59;17.30;99.90
33269;DHT22;19640;50.944;5.260;2022-10-16T09:21:40;17.50;99.90
33269;DHT22;19640;50.944;5.260;2022-10-16T09:24:15;17.50;99.90
33269;DHT22;19640;50.944;5.260;2022-10-16T09:26:42;17.40;99.90
33269;DHT22;19640;50.944;5.260;2022-10-16T09:29:13;17.50;99.90
33269;DHT22;19640;50.944;5.260;2022-10-16T09:31:40;17.60;99.90
33269;DHT22;19640;50.944;5.260;2022-10-16T09:34:22;17.60;99.90
33269;DHT22;19640;50.944;5.260;2022-10-16T09:36:49;17.70;99.90
33269;DHT22;19640;50.944;5.260;2022-10-16T09:39:15;17.60;99.90
33269;DHT22;19640;50.944;5.260;2022-10-16T09:41:43;17.80;99.90
33269;DHT22;19640;50.944;5.260;2022-10-16T09:44:26;17.80;99.90
33269;DHT22;19640;50.944;5.260;2022-10-16T09:47:13;17.90;99.90
33269;DHT22;19640;50.944;5.260;2022-10-16T09:49:53;17.90;99.90
33269;DHT22;19640;50.944;5.260;2022-10-16T09:52:19;17.80;99.90
33269;DHT22;19640;50.944;5.260;2022-10-16T09:54:59;17.70;99.90
33269;DHT22;19640;50.944;5.260;2022-10-16T09:57:26;17.70;99.90
33269;DHT22;19640;50.944;5.260;2022-10-16T09:59:54;18.00;99.90
33269;DHT22;19640;50.944;5.260;2022-10-16T10:04:54;18.00;99.90
33269;DHT22;19640;50.944;5.260;2022-10-16T10:07:28;18.00;99.90
33269;DHT22;19640;50.944;5.260;2022-10-16T10:09:58;17.90;99.90
33269;DHT22;19640;50.944;5.260;2022-10-16T10:12:25;17.80;99.90
33269;DHT22;19640;50.944;5.260;2022-10-16T10:14:54;17.80;99.90
33269;DHT22;19640;50.944;5.260;2022-10-16T10:17:28;17.90;99.90
33269;DHT22;19640;50.944;5.260;2022-10-16T10:19:58;17.90;99.90
33269;DHT22;19640;50.944;5.260;2022-10-16T10:22:40;18.00;99.90
33269;DHT22;19640;50.944;5.260;2022-10-16T10:28:00;17.90;99.90
33269;DHT22;19640;50.944;5.260;2022-10-16T10:33:08;18.20;99.90
33269;DHT22;19640;50.944;5.260;2022-10-16T10:36:40;18.20;99.90
33269;DHT22;19640;50.944;5.260;2022-10-16T10:38:59;18.40;99.90
33269;DHT22;19640;50.944;5.260;2022-10-16T10:53:47;18.40;99.90
33269;DHT22;19640;50.944;5.260;2022-10-16T11:01:44;18.80;99.90
33269;DHT22;19640;50.944;5.260;2022-10-16T11:04:47;18.90;99.90
33269;DHT22;19640;50.944;5.260;2022-10-16T11:07:48;18.70;99.90
33269;DHT22;19640;50.944;5.260;2022-10-16T11:10:24;18.60;99.90
33269;DHT22;19640;50.944;5.260;2022-10-16T11:12:57;18.90;99.90
33269;DHT22;19640;50.944;5.260;2022-10-16T11:15:29;19.10;99.90
33269;DHT22;19640;50.944;5.260;2022-10-16T11:18:08;19.10;99.90
33269;DHT22;19640;50.944;5.260;2022-10-16T11:20:42;19.10;99.90
33269;DHT22;19640;50.944;5.260;2022-10-16T11:23:21;18.80;99.90
33269;DHT22;19640;50.944;5.260;2022-10-16T11:25:51;18.80;99.90
33269;DHT22;19640;50.944;5.260;2022-10-16T11:28:20;18.80;99.90
33269;DHT22;19640;50.944;5.260;2022-10-16T11:33:36;18.90;99.90
33269;DHT22;19640;50.944;5.260;2022-10-16T11:41:34;18.90;99.90
33269;DHT22;19640;50.944;5.260;2022-10-16T11:49:51;18.80;99.90
33269;DHT22;19640;50.944;5.260;2022-10-16T11:52:36;18.90;99.90
33269;DHT22;19640;50.944;5.260;2022-10-16T11:55:21;19.10;99.90
33269;DHT22;19640;50.944;5.260;2022-10-16T11:57:54;19.30;99.90
33269;DHT22;19640;50.944;5.260;2022-10-16T12:00:33;19.20;99.90
33269;DHT22;19640;50.944;5.260;2022-10-16T12:09:01;19.00;99.90
33269;DHT22;19640;50.944;5.260;2022-10-16T12:11:37;19.00;99.90
33269;DHT22;19640;50.944;5.260;2022-10-16T12:17:00;19.00;99.90
33269;DHT22;19640;50.944;5.260;2022-10-16T12:19:28;19.20;99.90
33269;DHT22;19640;50.944;5.260;2022-10-16T12:21:57;18.80;99.90
33269;DHT22;19640;50.944;5.260;2022-10-16T12:24:41;18.80;99.90
33269;DHT22;19640;50.944;5.260;2022-10-16T12:27:30;19.00;99.90
33269;DHT22;19640;50.944;5.260;2022-10-16T12:29:59;19.20;99.90
33269;DHT22;19640;50.944;5.260;2022-10-16T12:34:53;19.50;99.90
33269;DHT22;19640;50.944;5.260;2022-10-16T12:37:26;19.70;99.90
33269;DHT22;19640;50.944;5.260;2022-10-16T12:39:53;19.60;99.90
33269;DHT22;19640;50.944;5.260;2022-10-16T12:44:52;20.00;99.90
33269;DHT22;19640;50.944;5.260;2022-10-16T12:50:31;20.00;99.90
33269;DHT22;19640;50.944;5.260;2022-10-16T12:52:58;20.00;99.90
33269;DHT22;19640;50.944;5.260;2022-10-16T12:55:24;20.00;99.90
33269;DHT22;19640;50.944;5.260;2022-10-16T12:57:59;20.00;99.90
33269;DHT22;19640;50.944;5.260;2022-10-16T13:00:44;20.00;99.90
33269;DHT22;19640;50.944;5.260;2022-10-16T13:06:17;19.60;99.90
33269;DHT22;19640;50.944;5.260;2022-10-16T13:21:50;19.10;99.90
33269;DHT22;19640;50.944;5.260;2022-10-16T13:24:36;19.10;99.90
33269;DHT22;19640;50.944;5.260;2022-10-16T13:27:39;19.30;99.90
33269;DHT22;19640;50.944;5.260;2022-10-16T13:30:17;19.40;99.90
33269;DHT22;19640;50.944;5.260;2022-10-16T13:32:50;19.40;99.90
33269;DHT22;19640;50.944;5.260;2022-10-16T13:35:22;19.00;99.90
33269;DHT22;19640;50.944;5.260;2022-10-16T13:37:49;18.70;99.90
33269;DHT22;19640;50.944;5.260;2022-10-16T13:40:22;18.60;99.90
33269;DHT22;19640;50.944;5.260;2022-10-16T13:42:50;18.70;99.90
33269;DHT22;19640;50.944;5.260;2022-10-16T13:45:24;19.10;99.90
33269;DHT22;19640;50.944;5.260;2022-10-16T13:48:09;19.30;99.90
33269;DHT22;19640;50.944;5.260;2022-10-16T13:50:37;19.50;99.90
33269;DHT22;19640;50.944;5.260;2022-10-16T13:53:07;19.60;99.90
33269;DHT22;19640;50.944;5.260;2022-10-16T13:55:33;19.70;99.90
33269;DHT22;19640;50.944;5.260;2022-10-16T13:58:10;19.40;99.90
33269;DHT22;19640;50.944;5.260;2022-10-16T14:00:37;19.20;99.90
33269;DHT22;19640;50.944;5.260;2022-10-16T14:03:15;19.20;99.90
33269;DHT22;19640;50.944;5.260;2022-10-16T14:05:48;19.40;99.90
33269;DHT22;19640;50.944;5.260;2022-10-16T14:08:14;19.40;99.90
33269;DHT22;19640;50.944;5.260;2022-10-16T14:10:40;19.50;99.90
33269;DHT22;19640;50.944;5.260;2022-10-16T14:13:07;19.40;99.90
33269;DHT22;19640;50.944;5.260;2022-10-16T14:15:35;19.40;99.90
33269;DHT22;19640;50.944;5.260;2022-10-16T14:18:02;19.50;99.90
33269;DHT22;19640;50.944;5.260;2022-10-16T14:20:31;19.50;99.90
33269;DHT22;19640;50.944;5.260;2022-10-16T14:23:00;19.30;99.90
33269;DHT22;19640;50.944;5.260;2022-10-16T14:25:30;19.20;99.90
33269;DHT22;19640;50.944;5.260;2022-10-16T14:28:17;19.30;99.90
33269;DHT22;19640;50.944;5.260;2022-10-16T14:33:32;18.90;99.90
33269;DHT22;19640;50.944;5.260;2022-10-16T14:36:11;19.00;99.90
33269;DHT22;19640;50.944;5.260;2022-10-16T14:38:39;19.10;99.90
33269;DHT22;19640;50.944;5.260;2022-10-16T14:41:05;19.10;99.90
33269;DHT22;19640;50.944;5.260;2022-10-16T14:43:41;19.30;99.90
33269;DHT22;19640;50.944;5.260;2022-10-16T14:46:12;19.40;99.90
33269;DHT22;19640;50.944;5.260;2022-10-16T14:48:43;19.30;99.90
33269;DHT22;19640;50.944;5.260;2022-10-16T14:51:19;19.20;99.90
33269;DHT22;19640;50.944;5.260;2022-10-16T14:53:46;19.10;99.90
33269;DHT22;19640;50.944;5.260;2022-10-16T14:56:21;19.10;99.90
33269;DHT22;19640;50.944;5.260;2022-10-16T14:58:48;19.00;99.90
33269;DHT22;19640;50.944;5.260;2022-10-16T15:01:15;18.90;99.90
33269;DHT22;19640;50.944;5.260;2022-10-16T15:03:40;18.90;99.90
33269;DHT22;19640;50.944;5.260;2022-10-16T15:06:16;19.10;99.90
33269;DHT22;19640;50.944;5.260;2022-10-16T15:08:42;19.30;99.90
33269;DHT22;19640;50.944;5.260;2022-10-16T15:11:16;19.40;99.90
33269;DHT22;19640;50.944;5.260;2022-10-16T15:13:42;19.30;99.90
33269;DHT22;19640;50.944;5.260;2022-10-16T15:16:13;19.00;99.90
33269;DHT22;19640;50.944;5.260;2022-10-16T15:18:39;18.90;99.90
33269;DHT22;19640;50.944;5.260;2022-10-16T15:21:04;18.80;99.90
33269;DHT22;19640;50.944;5.260;2022-10-16T15:23:30;18.60;99.90
33269;DHT22;19640;50.944;5.260;2022-10-16T15:25:56;18.60;99.90
33269;DHT22;19640;50.944;5.260;2022-10-16T15:28:23;18.50;99.90
33269;DHT22;19640;50.944;5.260;2022-10-16T15:30:51;18.60;99.90
33269;DHT22;19640;50.944;5.260;2022-10-16T15:33:19;18.60;99.90
33269;DHT22;19640;50.944;5.260;2022-10-16T15:35:50;18.80;99.90
33269;DHT22;19640;50.944;5.260;2022-10-16T15:38:18;19.00;99.90
33269;DHT22;19640;50.944;5.260;2022-10-16T15:40:45;18.90;99.90
33269;DHT22;19640;50.944;5.260;2022-10-16T15:43:11;18.50;99.90
33269;DHT22;19640;50.944;5.260;2022-10-16T15:45:37;18.40;99.90
33269;DHT22;19640;50.944;5.260;2022-10-16T15:48:02;18.60;99.90
33269;DHT22;19640;50.944;5.260;2022-10-16T15:50:30;18.60;99.90
33269;DHT22;19640;50.944;5.260;2022-10-16T15:52:56;18.50;99.90
33269;DHT22;19640;50.944;5.260;2022-10-16T15:55:21;18.60;99.90
33269;DHT22;19640;50.944;5.260;2022-10-16T15:57:47;18.60;99.90
33269;DHT22;19640;50.944;5.260;2022-10-16T16:00:18;18.60;99.90
33269;DHT22;19640;50.944;5.260;2022-10-16T16:02:51;18.50;99.90
33269;DHT22;19640;50.944;5.260;2022-10-16T16:05:18;18.20;99.90
33269;DHT22;19640;50.944;5.260;2022-10-16T16:07:44;18.20;99.90
33269;DHT22;19640;50.944;5.260;2022-10-16T16:10:10;18.30;99.90
33269;DHT22;19640;50.944;5.260;2022-10-16T16:12:37;18.40;99.90
33269;DHT22;19640;50.944;5.260;2022-10-16T16:15:07;18.20;99.90
33269;DHT22;19640;50.944;5.260;2022-10-16T16:17:35;18.20;99.90
33269;DHT22;19640;50.944;5.260;2022-10-16T16:20:01;18.10;99.90
33269;DHT22;19640;50.944;5.260;2022-10-16T16:22:27;17.80;99.90
33269;DHT22;19640;50.944;5.260;2022-10-16T16:24:53;17.50;99.90
33269;DHT22;19640;50.944;5.260;2022-10-16T16:27:18;17.40;99.90
33269;DHT22;19640;50.944;5.260;2022-10-16T16:29:45;17.50;99.90
33269;DHT22;19640;50.944;5.260;2022-10-16T16:32:11;17.60;99.90
33269;DHT22;19640;50.944;5.260;2022-10-16T16:34:37;17.70;99.90
33269;DHT22;19640;50.944;5.260;2022-10-16T16:37:02;17.70;99.90
33269;DHT22;19640;50.944;5.260;2022-10-16T16:39:28;17.60;99.90
33269;DHT22;19640;50.944;5.260;2022-10-16T16:41:56;17.60;99.90
33269;DHT22;19640;50.944;5.260;2022-10-16T16:44:23;17.20;99.90
33269;DHT22;19640;50.944;5.260;2022-10-16T16:46:49;17.40;99.90
33269;DHT22;19640;50.944;5.260;2022-10-16T16:49:15;17.30;99.90
33269;DHT22;19640;50.944;5.260;2022-10-16T16:51:43;17.20;99.90
33269;DHT22;19640;50.944;5.260;2022-10-16T16:54:10;17.10;99.90
33269;DHT22;19640;50.944;5.260;2022-10-16T16:56:35;17.20;99.90
33269;DHT22;19640;50.944;5.260;2022-10-16T16:59:01;17.20;99.90
33269;DHT22;19640;50.944;5.260;2022-10-16T17:01:27;17.20;99.90
33269;DHT22;19640;50.944;5.260;2022-10-16T17:03:55;17.20;99.90
33269;DHT22;19640;50.944;5.260;2022-10-16T17:06:23;17.20;99.90
33269;DHT22;19640;50.944;5.260;2022-10-16T17:08:50;17.20;99.90
33269;DHT22;19640;50.944;5.260;2022-10-16T17:11:21;17.10;99.90
33269;DHT22;19640;50.944;5.260;2022-10-16T17:13:48;16.90;99.90
33269;DHT22;19640;50.944;5.260;2022-10-16T17:16:13;16.60;99.90
33269;DHT22;19640;50.944;5.260;2022-10-16T17:18:39;16.60;99.90
33269;DHT22;19640;50.944;5.260;2022-10-16T17:21:07;16.70;99.90
33269;DHT22;19640;50.944;5.260;2022-10-16T17:23:34;16.90;99.90
33269;DHT22;19640;50.944;5.260;2022-10-16T17:26:15;16.90;99.90